Time;durP1;ratioP1;P1;durP2;ratioP2;P2;SDS_P1;SDS_P2;PMS_P1;PMS_P2;Temp;Humidity;BMP_temperature;BMP_pressure;BME280_temperature;BME280_humidity;BME280_pressure;Samples;Min_cycle;Max_cycle;Signal;HPM_P1;HPM_P2
2021/10/04 00:01:35;;;;;;;2.45;0.20;;;11.70;99.90;;;;;;5031201;28;20037;-61
2021/10/04 00:04:00;;;;;;;3.80;0.43;;;11.70;99.90;;;;;;5031262;28;20535;-61
2021/10/04 00:06:26;;;;;;;0.98;0.20;;;11.70;99.90;;;;;;5030980;28;20067;-62
2021/10/04 00:08:51;;;;;;;5.32;0.40;;;11.80;99.90;;;;;;5031129;28;20045;-61
2021/10/04 00:11:17;;;;;;;1.55;0.70;;;11.70;99.90;;;;;;5031283;28;20061;-60
2021/10/04 00:13:43;;;;;;;1.65;0.47;;;11.70;99.90;;;;;;5030695;28;20037;-61
2021/10/04 00:16:09;;;;;;;4.43;0.32;;;11.70;99.90;;;;;;5031394;28;20039;-62
2021/10/04 00:18:34;;;;;;;4.60;0.45;;;11.70;99.90;;;;;;5030720;28;20037;-61
2021/10/04 00:21:00;;;;;;;3.60;0.30;;;11.70;99.90;;;;;;5031309;28;20048;-62
2021/10/04 00:23:26;;;;;;;3.97;0.32;;;11.70;99.90;;;;;;5030807;28;20045;-63
2021/10/04 00:25:51;;;;;;;1.23;0.43;;;11.70;99.90;;;;;;5030782;28;20041;-61
2021/10/04 00:28:17;;;;;;;2.47;0.38;;;11.80;99.90;;;;;;5030921;28;20048;-63
2021/10/04 00:30:43;;;;;;;3.20;0.40;;;11.80;99.90;;;;;;5030742;28;20394;-63
2021/10/04 00:33:08;;;;;;;5.38;0.22;;;11.80;99.90;;;;;;5030973;28;20079;-63
2021/10/04 00:35:34;;;;;;;1.48;0.30;;;11.80;99.90;;;;;;5030566;28;20064;-63
2021/10/04 00:37:59;;;;;;;5.43;1.33;;;11.80;99.90;;;;;;5030651;28;20053;-63
2021/10/04 00:40:31;;;;;;;4.53;0.60;;;11.80;99.90;;;;;;5030774;28;20059;-61
2021/10/04 00:42:58;;;;;;;4.97;0.85;;;11.90;99.90;;;;;;5027237;28;20516;-63
2021/10/04 00:45:24;;;;;;;5.70;0.35;;;11.90;99.90;;;;;;5030755;28;20037;-61
2021/10/04 00:47:50;;;;;;;1.98;0.20;;;11.90;99.90;;;;;;5030471;28;20041;-64
2021/10/04 00:50:17;;;;;;;3.60;0.30;;;11.90;99.90;;;;;;5029644;28;20521;-60
2021/10/04 00:52:43;;;;;;;1.13;0.20;;;11.90;99.90;;;;;;5030205;28;20788;-62
2021/10/04 00:55:09;;;;;;;2.50;0.50;;;11.90;99.90;;;;;;5030666;28;20030;-60
2021/10/04 00:57:37;;;;;;;1.88;0.35;;;11.90;99.90;;;;;;5030498;28;20512;-61
2021/10/04 01:00:06;;;;;;;2.67;0.30;;;11.90;99.90;;;;;;5030070;28;20497;-61
2021/10/04 01:02:32;;;;;;;1.73;0.22;;;11.80;99.90;;;;;;5030456;28;20034;-61
2021/10/04 01:04:57;;;;;;;1.42;0.20;;;11.80;99.90;;;;;;5029658;28;20028;-61
2021/10/04 01:07:23;;;;;;;4.05;0.55;;;11.90;99.90;;;;;;5030070;28;20033;-61
2021/10/04 01:09:49;;;;;;;4.03;0.30;;;11.90;99.90;;;;;;5029614;28;20393;-62
2021/10/04 01:12:14;;;;;;;5.80;0.30;;;11.90;99.90;;;;;;5030131;28;20052;-61
2021/10/04 01:14:40;;;;;;;2.47;0.20;;;11.90;99.90;;;;;;5028655;28;20045;-62
2021/10/04 01:17:06;;;;;;;2.15;0.22;;;11.80;99.90;;;;;;5028601;28;20025;-60
2021/10/04 01:19:32;;;;;;;2.30;0.98;;;11.90;99.90;;;;;;5029780;28;20655;-61
2021/10/04 01:21:57;;;;;;;2.08;0.20;;;11.80;99.90;;;;;;5029697;28;20034;-61
2021/10/04 01:24:23;;;;;;;5.03;0.32;;;11.80;99.90;;;;;;5030256;28;20045;-61
2021/10/04 01:26:48;;;;;;;0.43;0.13;;;11.80;99.90;;;;;;5029589;28;20072;-61
2021/10/04 01:29:15;;;;;;;3.20;1.00;;;11.80;99.90;;;;;;5029775;28;20371;-61
2021/10/04 01:31:41;;;;;;;2.53;0.60;;;11.80;99.90;;;;;;5029692;28;20113;-61
2021/10/04 01:34:07;;;;;;;2.60;0.30;;;11.80;99.90;;;;;;5028220;28;20108;-62
2021/10/04 01:36:33;;;;;;;8.13;0.38;;;11.80;99.90;;;;;;5029938;28;20152;-60
2021/10/04 01:38:59;;;;;;;3.22;0.40;;;11.80;99.90;;;;;;5029473;28;20120;-60
2021/10/04 01:41:26;;;;;;;1.42;0.45;;;11.80;99.90;;;;;;5029861;28;20053;-63
2021/10/04 01:43:53;;;;;;;1.83;0.20;;;11.80;99.90;;;;;;5029531;28;20140;-61
2021/10/04 01:46:20;;;;;;;6.70;0.30;;;11.80;99.90;;;;;;5029722;28;20051;-60
2021/10/04 01:48:45;;;;;;;1.00;0.65;;;11.80;99.90;;;;;;5029610;28;20729;-62
2021/10/04 01:51:11;;;;;;;10.02;0.47;;;11.70;99.90;;;;;;5028925;28;20135;-61
2021/10/04 01:53:37;;;;;;;6.78;0.77;;;11.80;99.90;;;;;;5029933;28;20029;-60
2021/10/04 01:56:03;;;;;;;1.60;0.30;;;11.80;99.90;;;;;;5029888;28;20527;-61
2021/10/04 01:58:30;;;;;;;2.83;0.30;;;11.80;99.90;;;;;;5029463;28;20057;-61
2021/10/04 02:00:58;;;;;;;9.93;1.33;;;11.80;99.90;;;;;;5030135;28;20109;-63
2021/10/04 02:03:23;;;;;;;2.60;0.52;;;11.90;99.90;;;;;;5029048;28;20037;-62
2021/10/04 02:05:49;;;;;;;4.10;0.30;;;11.90;99.90;;;;;;5028907;28;20056;-60
2021/10/04 02:08:15;;;;;;;7.13;0.32;;;11.80;99.90;;;;;;5027970;28;20033;-61
2021/10/04 02:10:42;;;;;;;3.72;0.30;;;11.80;99.90;;;;;;5028061;28;20038;-61
2021/10/04 02:13:10;;;;;;;3.25;0.20;;;11.80;99.90;;;;;;5029852;28;20034;-61
2021/10/04 02:15:38;;;;;;;2.60;0.25;;;11.70;99.90;;;;;;5029618;28;20494;-60
2021/10/04 02:18:05;;;;;;;2.58;0.20;;;11.70;99.90;;;;;;5029473;28;20037;-63
2021/10/04 02:20:33;;;;;;;4.63;0.43;;;11.70;99.90;;;;;;5029156;28;20079;-62
2021/10/04 02:23:06;;;;;;;2.05;0.57;;;11.70;99.90;;;;;;5029710;28;20452;-62
2021/10/04 02:25:39;;;;;;;1.90;0.30;;;11.70;99.90;;;;;;5029089;28;20493;-60
2021/10/04 02:28:07;;;;;;;4.95;0.40;;;11.70;99.90;;;;;;5029707;28;20040;-65
2021/10/04 02:30:33;;;;;;;3.90;0.65;;;11.70;99.90;;;;;;5029054;28;20108;-62
2021/10/04 02:32:58;;;;;;;5.03;0.50;;;11.70;99.90;;;;;;5029355;28;20040;-63
2021/10/04 02:35:24;;;;;;;12.10;0.85;;;11.70;99.90;;;;;;5029175;28;20034;-61
2021/10/04 02:37:51;;;;;;;7.45;0.52;;;11.70;99.90;;;;;;5029612;28;20442;-61
2021/10/04 02:40:17;;;;;;;3.67;0.30;;;11.70;99.90;;;;;;5027871;28;20032;-62
2021/10/04 02:42:44;;;;;;;4.60;0.40;;;11.80;99.90;;;;;;5027741;28;20032;-60
2021/10/04 02:45:13;;;;;;;3.72;0.43;;;11.70;99.90;;;;;;5029736;28;20026;-60
2021/10/04 02:47:39;;;;;;;3.20;0.30;;;11.70;99.90;;;;;;5028992;28;20056;-62
2021/10/04 02:50:07;;;;;;;0.80;0.55;;;11.70;99.90;;;;;;5029377;28;20029;-63
2021/10/04 02:52:33;;;;;;;1.67;0.50;;;11.60;99.90;;;;;;5028726;28;20046;-61
2021/10/04 02:54:59;;;;;;;2.55;0.40;;;11.60;99.90;;;;;;5029639;28;20037;-61
2021/10/04 02:57:24;;;;;;;3.13;0.52;;;11.60;99.90;;;;;;5027221;28;20100;-61
2021/10/04 02:59:50;;;;;;;4.90;0.50;;;11.60;99.90;;;;;;5029405;28;20501;-60
2021/10/04 03:02:16;;;;;;;6.47;0.93;;;11.50;99.90;;;;;;5029345;28;20124;-62
2021/10/04 03:04:41;;;;;;;2.00;0.20;;;11.60;99.90;;;;;;5029101;28;20036;-62
2021/10/04 03:07:07;;;;;;;6.10;0.63;;;11.50;99.90;;;;;;5029275;28;20474;-62
2021/10/04 03:09:32;;;;;;;2.47;0.55;;;11.50;99.90;;;;;;5028719;28;20087;-61
2021/10/04 03:11:58;;;;;;;2.65;0.57;;;11.40;99.90;;;;;;5028585;28;20041;-66
2021/10/04 03:14:24;;;;;;;3.80;0.40;;;11.40;99.90;;;;;;5030704;28;20822;-61
2021/10/04 03:16:49;;;;;;;4.22;0.40;;;11.40;99.90;;;;;;5034275;28;20488;-61
2021/10/04 03:19:15;;;;;;;2.63;0.80;;;11.30;99.90;;;;;;5033469;28;20085;-67
2021/10/04 03:21:41;;;;;;;6.97;0.77;;;11.30;99.90;;;;;;5033550;28;20018;-64
2021/10/04 03:24:07;;;;;;;1.63;0.50;;;11.30;99.90;;;;;;5033699;28;20055;-63
2021/10/04 03:26:33;;;;;;;2.97;0.63;;;11.30;99.90;;;;;;5032296;28;20047;-62
2021/10/04 03:28:58;;;;;;;2.15;0.77;;;11.20;99.90;;;;;;5032536;28;20042;-62
2021/10/04 03:31:24;;;;;;;2.65;0.32;;;11.20;99.90;;;;;;5032604;28;20175;-62
2021/10/04 03:33:50;;;;;;;5.03;0.70;;;11.10;99.90;;;;;;5031926;28;20485;-62
2021/10/04 03:36:15;;;;;;;2.03;0.40;;;11.10;99.90;;;;;;5032653;28;20034;-62
2021/10/04 03:38:41;;;;;;;2.58;0.65;;;11.10;99.90;;;;;;5031812;28;20494;-64
2021/10/04 03:41:06;;;;;;;7.18;0.75;;;11.10;99.90;;;;;;5032108;28;20045;-62
2021/10/04 03:43:33;;;;;;;3.22;0.57;;;11.10;99.90;;;;;;5031622;28;20045;-64
2021/10/04 03:45:58;;;;;;;4.07;0.57;;;11.10;99.90;;;;;;5032381;28;20104;-61
2021/10/04 03:48:24;;;;;;;3.03;0.40;;;11.10;99.90;;;;;;5031898;28;20116;-62
2021/10/04 03:50:49;;;;;;;0.63;0.32;;;11.10;99.90;;;;;;5031723;28;20072;-63
2021/10/04 03:53:15;;;;;;;1.70;0.30;;;11.10;99.90;;;;;;5032186;28;20033;-64
2021/10/04 03:55:41;;;;;;;1.95;0.93;;;11.10;99.90;;;;;;5027642;28;20040;-62
2021/10/04 03:58:06;;;;;;;1.08;0.30;;;11.10;99.90;;;;;;5031776;28;20440;-62
2021/10/04 04:00:32;;;;;;;3.13;0.30;;;11.10;99.90;;;;;;5031984;28;20379;-61
2021/10/04 04:02:57;;;;;;;3.88;1.05;;;11.10;99.90;;;;;;5031190;28;20053;-63
2021/10/04 04:05:23;;;;;;;1.73;0.30;;;11.10;99.90;;;;;;5031949;28;20057;-61
2021/10/04 04:07:49;;;;;;;4.35;1.10;;;11.10;99.90;;;;;;5031408;28;20037;-61
2021/10/04 04:10:16;;;;;;;1.42;0.38;;;11.10;99.90;;;;;;5031527;28;20037;-62
2021/10/04 04:12:43;;;;;;;4.13;0.60;;;11.10;99.90;;;;;;5026608;28;20773;-63
2021/10/04 04:15:09;;;;;;;3.85;0.50;;;11.00;99.90;;;;;;5029665;28;20033;-62
2021/10/04 04:17:35;;;;;;;3.47;0.38;;;11.00;99.90;;;;;;5028627;28;20117;-61
2021/10/04 04:20:01;;;;;;;0.70;0.20;;;11.00;99.90;;;;;;5028706;28;20128;-63
2021/10/04 04:22:27;;;;;;;2.58;0.65;;;11.00;99.90;;;;;;5029466;28;20029;-63
2021/10/04 04:24:53;;;;;;;3.30;1.00;;;11.00;99.90;;;;;;5028482;28;20033;-62
2021/10/04 04:27:18;;;;;;;3.63;0.60;;;10.90;99.90;;;;;;5028925;28;20516;-63
2021/10/04 04:29:44;;;;;;;1.42;0.70;;;10.90;99.90;;;;;;5031279;28;20090;-62
2021/10/04 04:32:11;;;;;;;5.07;0.50;;;10.90;99.90;;;;;;5036525;28;20053;-61
2021/10/04 04:34:37;;;;;;;4.05;0.52;;;10.90;99.90;;;;;;5034469;28;20033;-62
2021/10/04 04:37:04;;;;;;;3.05;0.68;;;10.90;99.90;;;;;;5033463;28;20040;-63
2021/10/04 04:39:31;;;;;;;4.97;1.13;;;10.90;99.90;;;;;;5036570;28;20481;-64
2021/10/04 04:41:57;;;;;;;2.90;0.60;;;10.90;99.90;;;;;;5037515;28;20133;-63
2021/10/04 04:44:22;;;;;;;2.55;0.68;;;10.90;99.90;;;;;;5038819;28;20168;-63
2021/10/04 04:46:49;;;;;;;3.95;0.40;;;10.80;99.90;;;;;;5035214;28;20041;-64
2021/10/04 04:49:16;;;;;;;1.85;0.60;;;10.80;99.90;;;;;;5039066;28;20060;-64
2021/10/04 04:51:42;;;;;;;1.80;0.80;;;10.80;99.90;;;;;;5037358;28;20133;-61
2021/10/04 04:54:08;;;;;;;3.83;0.90;;;10.80;99.90;;;;;;5032981;28;20556;-62
2021/10/04 04:56:34;;;;;;;2.65;0.60;;;10.80;99.90;;;;;;5033840;28;20401;-62
2021/10/04 04:59:00;;;;;;;4.25;0.80;;;10.80;99.90;;;;;;5029148;28;20385;-63
2021/10/04 05:01:26;;;;;;;2.63;0.80;;;10.80;99.90;;;;;;5028805;28;20041;-62
2021/10/04 05:03:52;;;;;;;4.25;1.10;;;10.80;99.90;;;;;;5025930;28;20042;-62
2021/10/04 05:06:17;;;;;;;6.95;0.90;;;10.80;99.90;;;;;;5026933;28;20087;-62
2021/10/04 05:08:43;;;;;;;3.53;1.05;;;10.80;99.90;;;;;;5026959;28;20068;-61
2021/10/04 05:11:08;;;;;;;4.18;1.23;;;10.70;99.90;;;;;;5026539;28;20076;-64
2021/10/04 05:13:34;;;;;;;3.35;0.80;;;10.70;99.90;;;;;;5027528;28;20033;-64
2021/10/04 05:16:00;;;;;;;1.85;0.90;;;10.80;99.90;;;;;;5027467;28;20421;-64
2021/10/04 05:18:25;;;;;;;6.30;1.35;;;10.80;99.90;;;;;;5026936;28;20032;-63
2021/10/04 05:20:51;;;;;;;3.42;0.70;;;10.80;99.90;;;;;;5027616;28;20037;-64
2021/10/04 05:23:17;;;;;;;6.93;1.05;;;10.80;99.90;;;;;;5027085;28;20030;-63
2021/10/04 05:25:42;;;;;;;3.22;0.77;;;10.80;99.90;;;;;;5027524;28;20127;-61
2021/10/04 05:28:08;;;;;;;3.72;0.75;;;10.80;99.90;;;;;;5027199;28;20033;-64
2021/10/04 05:30:34;;;;;;;4.45;1.30;;;10.70;99.90;;;;;;5027670;28;20053;-62
2021/10/04 05:33:00;;;;;;;3.65;0.65;;;10.70;99.90;;;;;;5026896;28;20033;-64
2021/10/04 05:35:27;;;;;;;2.40;0.60;;;10.80;99.90;;;;;;5027292;28;20028;-64
2021/10/04 05:37:52;;;;;;;7.68;1.92;;;10.80;99.90;;;;;;5027782;28;20041;-62
2021/10/04 05:40:18;;;;;;;10.52;1.10;;;10.80;99.90;;;;;;5027070;28;20408;-63
2021/10/04 05:42:44;;;;;;;3.17;0.43;;;10.80;99.90;;;;;;5027674;28;20507;-62
2021/10/04 05:45:12;;;;;;;3.70;1.00;;;10.80;99.90;;;;;;5026611;28;20043;-62
2021/10/04 05:47:38;;;;;;;3.00;0.80;;;10.80;99.90;;;;;;5027125;28;20076;-62
2021/10/04 05:50:05;;;;;;;5.10;0.88;;;10.80;99.90;;;;;;5027899;28;20040;-62
2021/10/04 05:52:31;;;;;;;2.00;0.63;;;10.80;99.90;;;;;;5026093;28;20064;-62
2021/10/04 05:54:57;;;;;;;1.63;0.60;;;10.80;99.90;;;;;;5026911;28;20037;-62
2021/10/04 05:57:23;;;;;;;3.13;0.70;;;10.80;99.90;;;;;;5026849;28;20041;-61
2021/10/04 05:59:48;;;;;;;4.80;0.80;;;10.80;99.90;;;;;;5027450;28;20037;-63
2021/10/04 06:02:14;;;;;;;4.13;0.60;;;10.80;99.90;;;;;;5026557;28;20905;-64
2021/10/04 06:04:40;;;;;;;3.10;0.55;;;10.80;99.90;;;;;;5027216;28;20073;-63
2021/10/04 06:07:05;;;;;;;6.88;0.60;;;10.80;99.90;;;;;;5026955;28;20052;-63
2021/10/04 06:09:31;;;;;;;4.80;1.27;;;10.90;99.90;;;;;;5026852;28;20033;-61
2021/10/04 06:11:56;;;;;;;6.80;0.68;;;10.90;99.90;;;;;;5029121;28;20030;-64
2021/10/04 06:14:23;;;;;;;7.53;1.33;;;10.90;99.90;;;;;;5029291;28;20038;-64
2021/10/04 06:16:48;;;;;;;3.22;0.85;;;10.90;99.90;;;;;;5030382;28;20434;-63
2021/10/04 06:19:15;;;;;;;5.78;0.52;;;10.80;99.90;;;;;;5029320;28;20048;-62
2021/10/04 06:21:41;;;;;;;2.78;0.63;;;10.90;99.90;;;;;;5029822;28;20083;-62
2021/10/04 06:24:06;;;;;;;3.33;0.77;;;10.90;99.90;;;;;;5029754;28;20033;-64
2021/10/04 06:26:32;;;;;;;2.22;0.50;;;10.90;99.90;;;;;;5025803;28;20046;-63
2021/10/04 06:28:57;;;;;;;2.75;0.75;;;10.90;99.90;;;;;;5030075;28;20069;-64
2021/10/04 06:31:25;;;;;;;1.90;1.02;;;10.90;99.90;;;;;;5029349;28;20034;-63
2021/10/04 06:33:51;;;;;;;1.85;0.50;;;10.90;99.90;;;;;;5030155;28;20034;-64
2021/10/04 06:36:17;;;;;;;5.03;1.08;;;10.80;99.90;;;;;;5029383;28;20109;-62
2021/10/04 06:38:43;;;;;;;2.17;0.40;;;10.80;99.90;;;;;;5034961;28;20041;-62
2021/10/04 06:41:09;;;;;;;3.42;0.80;;;10.80;99.90;;;;;;5032494;28;20041;-62
2021/10/04 06:43:34;;;;;;;4.22;0.60;;;10.80;99.90;;;;;;5029808;28;20036;-62
2021/10/04 06:46:00;;;;;;;6.00;0.80;;;10.80;99.90;;;;;;5029788;28;20470;-63
2021/10/04 06:48:25;;;;;;;2.58;0.55;;;10.80;99.90;;;;;;5029549;28;20039;-64
2021/10/04 06:50:53;;;;;;;5.30;1.08;;;10.80;99.90;;;;;;5032078;28;20030;-63
2021/10/04 06:53:19;;;;;;;1.58;0.40;;;10.80;99.90;;;;;;5033155;28;20108;-65
2021/10/04 06:55:45;;;;;;;0.98;0.40;;;10.80;99.90;;;;;;5059358;28;20045;-63
2021/10/04 06:58:11;;;;;;;8.18;0.80;;;10.80;99.90;;;;;;5033421;28;20117;-63
2021/10/04 07:00:37;;;;;;;2.63;0.80;;;10.80;99.90;;;;;;5033862;28;20504;-63
2021/10/04 07:03:03;;;;;;;3.10;0.50;;;10.80;99.90;;;;;;5033939;28;20316;-63
2021/10/04 07:05:29;;;;;;;5.65;0.80;;;10.80;99.90;;;;;;5032860;28;20030;-63
2021/10/04 07:07:56;;;;;;;3.13;0.40;;;10.80;99.90;;;;;;5033583;28;20719;-62
2021/10/04 07:10:23;;;;;;;1.48;0.82;;;10.90;99.90;;;;;;5032788;28;20041;-63
2021/10/04 07:12:49;;;;;;;7.00;1.45;;;11.00;99.90;;;;;;5033512;28;20061;-62
2021/10/04 07:15:15;;;;;;;3.60;0.43;;;11.10;99.90;;;;;;5033172;28;20104;-66
2021/10/04 07:17:41;;;;;;;3.88;0.40;;;11.20;99.90;;;;;;5033183;28;20034;-63
2021/10/04 07:20:07;;;;;;;3.80;1.00;;;11.30;99.90;;;;;;5033183;28;20473;-63
2021/10/04 07:22:33;;;;;;;2.88;0.32;;;11.40;99.90;;;;;;5032885;28;20718;-63
2021/10/04 07:24:58;;;;;;;2.28;0.63;;;11.50;99.90;;;;;;5029295;28;20026;-63
2021/10/04 07:27:24;;;;;;;2.58;0.90;;;11.60;99.90;;;;;;5032407;28;20033;-63
2021/10/04 07:29:50;;;;;;;1.58;0.30;;;11.80;99.90;;;;;;5033229;28;20034;-63
2021/10/04 07:32:16;;;;;;;3.35;0.40;;;11.80;99.90;;;;;;5033156;28;20026;-62
2021/10/04 07:34:41;;;;;;;3.65;0.70;;;11.90;99.90;;;;;;5030958;28;20531;-62
2021/10/04 07:37:07;;;;;;;4.30;0.55;;;12.10;99.90;;;;;;5032814;28;20513;-63
2021/10/04 07:39:33;;;;;;;4.00;0.60;;;12.10;99.90;;;;;;5032359;28;20041;-63
2021/10/04 07:41:59;;;;;;;3.50;0.63;;;12.20;99.90;;;;;;5031609;28;20034;-63
2021/10/04 07:44:26;;;;;;;4.78;0.93;;;12.30;99.90;;;;;;5031967;28;20164;-63
2021/10/04 07:46:53;;;;;;;5.05;0.50;;;12.30;99.90;;;;;;5032565;28;20631;-63
2021/10/04 07:49:19;;;;;;;5.30;1.02;;;12.40;99.90;;;;;;5032525;28;20796;-63
2021/10/04 07:51:45;;;;;;;6.28;0.77;;;12.60;99.90;;;;;;5031035;28;20041;-63
2021/10/04 07:54:11;;;;;;;2.55;0.60;;;12.60;99.90;;;;;;5032098;28;20111;-62
2021/10/04 07:56:39;;;;;;;5.05;0.55;;;12.70;99.90;;;;;;5033506;28;20453;-63
2021/10/04 07:59:06;;;;;;;2.60;0.65;;;12.80;99.90;;;;;;5033448;28;20033;-62
2021/10/04 08:01:33;;;;;;;2.80;0.40;;;12.80;99.90;;;;;;5033676;28;20034;-62
2021/10/04 08:03:58;;;;;;;4.88;0.90;;;12.80;99.90;;;;;;5036648;28;20029;-63
2021/10/04 08:06:26;;;;;;;10.15;1.00;;;12.90;99.90;;;;;;5036923;28;20040;-61
2021/10/04 08:08:53;;;;;;;3.67;0.80;;;13.00;99.90;;;;;;5037203;28;20109;-62
2021/10/04 08:11:19;;;;;;;1.48;0.40;;;13.00;99.90;;;;;;5036214;28;20029;-63
2021/10/04 08:13:46;;;;;;;2.17;0.50;;;13.10;99.90;;;;;;5036103;28;20034;-62
2021/10/04 08:16:12;;;;;;;2.05;0.43;;;13.20;99.90;;;;;;5036748;28;20116;-63
2021/10/04 08:18:38;;;;;;;4.30;0.70;;;13.20;99.90;;;;;;5034144;28;20037;-64
2021/10/04 08:21:04;;;;;;;5.95;0.93;;;13.30;99.90;;;;;;5036091;28;20163;-63
2021/10/04 08:23:29;;;;;;;1.55;0.57;;;13.40;99.90;;;;;;5034316;28;20033;-62
2021/10/04 08:25:55;;;;;;;2.88;0.77;;;13.50;99.90;;;;;;5027347;28;20048;-63
2021/10/04 08:28:21;;;;;;;5.10;0.63;;;13.60;99.90;;;;;;5031871;28;20086;-62
2021/10/04 08:30:47;;;;;;;3.05;0.40;;;13.70;99.90;;;;;;5032940;28;20103;-63
2021/10/04 08:33:13;;;;;;;8.52;0.68;;;13.70;99.90;;;;;;5032725;28;20037;-62
2021/10/04 08:35:39;;;;;;;4.00;0.52;;;13.90;99.90;;;;;;5032222;28;20048;-64
2021/10/04 08:38:05;;;;;;;4.40;1.30;;;13.90;99.90;;;;;;5029930;28;20037;-62
2021/10/04 08:40:31;;;;;;;4.32;0.47;;;14.00;99.90;;;;;;5032015;28;20037;-64
2021/10/04 08:42:56;;;;;;;3.20;0.55;;;14.00;99.90;;;;;;5031612;28;20030;-65
2021/10/04 08:45:29;;;;;;;4.25;0.60;;;14.00;99.90;;;;;;5029966;28;20037;-63
2021/10/04 08:47:58;;;;;;;2.92;0.40;;;14.10;99.90;;;;;;5026409;28;20041;-63
2021/10/04 08:50:26;;;;;;;9.80;0.85;;;14.10;99.90;;;;;;5027441;28;20033;-64
2021/10/04 08:52:51;;;;;;;2.80;0.40;;;14.20;99.90;;;;;;5031215;28;20458;-63
2021/10/04 08:55:18;;;;;;;1.63;0.68;;;14.20;99.90;;;;;;5031570;28;20116;-64
2021/10/04 08:57:44;;;;;;;5.18;0.70;;;14.30;99.90;;;;;;5029631;28;20413;-64
2021/10/04 09:00:11;;;;;;;4.60;0.65;;;14.40;99.90;;;;;;5031971;28;20029;-63
2021/10/04 09:02:37;;;;;;;1.42;0.40;;;14.50;99.90;;;;;;5032677;28;20039;-63
2021/10/04 09:05:25;;;;;;;4.25;0.40;;;14.50;99.90;;;;;;5032322;28;20056;-63
2021/10/04 09:08:12;;;;;;;3.30;0.70;;;14.50;99.90;;;;;;5035118;28;20109;-65
2021/10/04 09:10:41;;;;;;;11.95;0.50;;;14.60;99.90;;;;;;5030572;28;20041;-63
2021/10/04 09:13:15;;;;;;;4.13;0.50;;;14.70;99.90;;;;;;5030258;28;20045;-62
2021/10/04 09:15:48;;;;;;;2.78;0.63;;;14.70;99.90;;;;;;5028841;28;20385;-64
2021/10/04 09:18:30;;;;;;;5.18;0.90;;;14.70;99.90;;;;;;5030954;28;20041;-62
2021/10/04 09:21:07;;;;;;;4.97;0.93;;;14.80;99.90;;;;;;5030507;28;20029;-62
2021/10/04 09:23:44;;;;;;;9.63;0.73;;;14.90;99.90;;;;;;5027763;28;20056;-62
2021/10/04 09:26:29;;;;;;;3.75;0.20;;;15.00;99.90;;;;;;5031042;28;20091;-62
2021/10/04 09:28:58;;;;;;;10.90;0.95;;;15.00;99.90;;;;;;5030911;28;20033;-62
2021/10/04 09:31:27;;;;;;;10.40;0.80;;;15.10;99.90;;;;;;5026225;28;20527;-61
2021/10/04 09:34:02;;;;;;;4.53;0.40;;;15.10;99.90;;;;;;5031047;28;20026;-62
2021/10/04 09:36:32;;;;;;;2.47;0.28;;;15.10;99.90;;;;;;5030997;28;20052;-62
2021/10/04 09:39:15;;;;;;;1.73;0.40;;;15.10;99.90;;;;;;5036041;28;20029;-62
2021/10/04 09:42:11;;;;;;;3.53;0.35;;;15.20;99.90;;;;;;5039955;28;20075;-62
2021/10/04 09:45:00;;;;;;;3.17;0.40;;;15.20;99.90;;;;;;5044778;28;20057;-63
2021/10/04 09:47:36;;;;;;;3.08;0.40;;;15.30;99.90;;;;;;5045806;28;20107;-63
2021/10/04 09:50:01;;;;;;;5.55;0.73;;;15.40;99.90;;;;;;5045709;28;20056;-62
2021/10/04 09:52:41;;;;;;;3.85;0.93;;;15.50;99.90;;;;;;5047474;28;20030;-62
2021/10/04 09:55:19;;;;;;;6.50;0.60;;;15.50;99.90;;;;;;5045137;28;20029;-63
2021/10/04 09:57:56;;;;;;;2.22;0.70;;;15.60;99.90;;;;;;5030472;28;20101;-62
2021/10/04 10:00:23;;;;;;;4.97;0.30;;;15.60;99.90;;;;;;5026970;28;20052;-61
2021/10/04 10:02:54;;;;;;;2.95;0.30;;;15.70;99.90;;;;;;5030203;28;20052;-62
2021/10/04 10:05:25;;;;;;;5.22;0.30;;;15.70;99.90;;;;;;5026186;28;20084;-61
2021/10/04 10:07:51;;;;;;;3.78;0.43;;;15.70;99.90;;;;;;5021878;28;20116;-62
2021/10/04 10:10:18;;;;;;;5.30;0.50;;;15.70;99.90;;;;;;5029835;28;20108;-62
2021/10/04 10:12:44;;;;;;;2.13;0.40;;;15.80;99.90;;;;;;5029609;28;20045;-62
2021/10/04 10:15:19;;;;;;;8.02;0.90;;;15.80;99.90;;;;;;5029397;28;20051;-62
2021/10/04 10:17:48;;;;;;;4.90;0.40;;;15.90;99.90;;;;;;5027627;28;20049;-62
2021/10/04 10:20:20;;;;;;;5.93;0.65;;;15.90;99.90;;;;;;5029210;28;20041;-62
2021/10/04 10:22:49;;;;;;;3.67;0.82;;;15.90;99.90;;;;;;5029550;28;20121;-62
2021/10/04 10:25:37;;;;;;;2.92;0.70;;;16.00;99.90;;;;;;5028968;28;20037;-61
2021/10/04 10:28:07;;;;;;;2.72;0.70;;;16.00;99.90;;;;;;5027479;28;20192;-62
2021/10/04 10:30:33;;;;;;;2.55;0.30;;;16.00;99.90;;;;;;5029889;28;20069;-62
2021/10/04 10:32:59;;;;;;;4.65;0.90;;;16.10;99.90;;;;;;5027466;28;20497;-63
2021/10/04 10:35:44;;;;;;;1.35;0.20;;;16.20;99.90;;;;;;5029447;28;20030;-61
2021/10/04 10:38:10;;;;;;;3.80;0.40;;;16.20;99.90;;;;;;5028725;28;20028;-61
2021/10/04 10:40:36;;;;;;;4.53;0.60;;;16.10;99.90;;;;;;5029268;28;20124;-61
2021/10/04 10:43:01;;;;;;;7.70;0.65;;;16.10;99.90;;;;;;5029211;28;20037;-62
2021/10/04 10:45:50;;;;;;;7.10;1.25;;;16.10;99.90;;;;;;5029594;28;20029;-61
2021/10/04 10:48:17;;;;;;;9.95;1.35;;;16.20;99.90;;;;;;5028599;28;20064;-62
2021/10/04 10:50:47;;;;;;;6.47;0.70;;;16.20;99.90;;;;;;5029217;28;20029;-61
2021/10/04 10:53:20;;;;;;;4.15;0.30;;;16.30;99.90;;;;;;5048822;28;20029;-61
2021/10/04 10:55:57;;;;;;;6.40;0.65;;;16.30;99.90;;;;;;5028485;28;20485;-61
2021/10/04 10:58:34;;;;;;;3.53;0.60;;;16.30;99.90;;;;;;5025840;28;20183;-62
2021/10/04 11:01:05;;;;;;;4.22;1.02;;;16.30;99.90;;;;;;5028928;28;20093;-62
2021/10/04 11:03:31;;;;;;;6.63;0.50;;;16.30;99.90;;;;;;5028015;28;20385;-62
2021/10/04 11:06:01;;;;;;;4.18;0.68;;;16.30;99.90;;;;;;5029730;28;20030;-61
2021/10/04 11:08:29;;;;;;;5.85;1.20;;;16.30;99.90;;;;;;5027770;28;20032;-62
2021/10/04 11:10:58;;;;;;;6.03;0.70;;;16.30;99.90;;;;;;5029220;28;20516;-61
2021/10/04 11:13:55;;;;;;;6.78;0.70;;;16.40;99.90;;;;;;5026884;28;20358;-61
2021/10/04 11:16:24;;;;;;;6.03;0.60;;;16.40;99.90;;;;;;5025442;28;20033;-62
2021/10/04 11:18:51;;;;;;;9.57;1.02;;;16.60;99.90;;;;;;5029227;28;20072;-61
2021/10/04 11:21:20;;;;;;;12.55;2.05;;;16.60;99.90;;;;;;5016984;28;20479;-62
2021/10/04 11:23:57;;;;;;;5.20;0.40;;;16.70;99.90;;;;;;5025295;28;20044;-62
2021/10/04 11:26:23;;;;;;;5.28;0.50;;;16.70;99.90;;;;;;5025405;28;20026;-61
2021/10/04 11:28:55;;;;;;;4.78;0.40;;;16.70;99.90;;;;;;5027820;28;20025;-62
2021/10/04 11:31:23;;;;;;;7.20;0.82;;;16.80;99.90;;;;;;5048841;28;20029;-62
2021/10/04 11:33:57;;;;;;;6.25;0.93;;;16.80;99.90;;;;;;5029103;28;20085;-62
2021/10/04 11:36:28;;;;;;;3.42;0.75;;;16.70;99.90;;;;;;5028843;28;20470;-62
2021/10/04 11:39:00;;;;;;;4.88;0.65;;;16.80;99.90;;;;;;5032198;28;20563;-62
2021/10/04 11:41:28;;;;;;;3.72;0.50;;;16.80;99.90;;;;;;5032000;28;20033;-62
2021/10/04 11:43:59;;;;;;;5.75;0.63;;;16.90;99.90;;;;;;5032670;28;20049;-62
2021/10/04 11:46:28;;;;;;;4.28;1.40;;;17.00;99.90;;;;;;5031800;28;20034;-65
2021/10/04 11:49:02;;;;;;;4.05;0.93;;;17.00;99.90;;;;;;5031888;28;20036;-63
2021/10/04 11:51:29;;;;;;;4.93;0.50;;;17.10;99.90;;;;;;5031289;28;20393;-62
2021/10/04 11:53:56;;;;;;;3.20;0.63;;;17.10;99.90;;;;;;5031802;28;20030;-62
2021/10/04 11:56:22;;;;;;;4.63;0.43;;;17.00;99.90;;;;;;5042484;28;20033;-62
2021/10/04 11:58:56;;;;;;;7.03;0.95;;;17.00;99.90;;;;;;5036712;28;20029;-62
2021/10/04 12:01:39;;;;;;;2.13;0.60;;;17.00;99.90;;;;;;5041436;28;20527;-62
2021/10/04 12:04:12;;;;;;;10.82;0.63;;;17.10;99.90;;;;;;5030485;28;20033;-61
2021/10/04 12:06:42;;;;;;;5.57;0.52;;;17.10;99.90;;;;;;5028804;28;20037;-61
2021/10/04 12:09:12;;;;;;;;;;;17.10;99.90;;;;;;5028029;28;20037;-61
2021/10/04 12:11:48;;;;;;;5.88;0.90;;;17.10;99.90;;;;;;5030747;28;19917;-61
2021/10/04 12:14:14;;;;;;;6.28;0.63;;;17.10;99.90;;;;;;5027552;28;20122;-62
2021/10/04 12:16:40;;;;;;;6.30;0.50;;;17.10;99.90;;;;;;5031594;28;20088;-61
2021/10/04 12:19:06;;;;;;;5.22;0.40;;;17.10;99.90;;;;;;5031279;28;20029;-61
2021/10/04 12:21:38;;;;;;;4.03;0.40;;;17.10;99.90;;;;;;5031027;28;20037;-61
2021/10/04 12:24:26;;;;;;;6.93;0.73;;;17.20;99.90;;;;;;5024145;28;20048;-61
2021/10/04 12:26:55;;;;;;;3.65;0.82;;;17.20;99.90;;;;;;5027746;28;20053;-62
2021/10/04 12:29:35;;;;;;;3.95;0.50;;;17.20;99.90;;;;;;5024802;28;20029;-62
2021/10/04 12:32:22;;;;;;;3.25;0.47;;;17.10;99.90;;;;;;5025653;28;20034;-61
2021/10/04 12:35:17;;;;;;;2.97;0.40;;;17.10;99.90;;;;;;5026230;28;20033;-61
2021/10/04 12:37:52;;;;;;;4.28;0.43;;;17.20;99.90;;;;;;5027347;28;20046;-61
2021/10/04 12:40:22;;;;;;;1.15;0.20;;;17.30;99.90;;;;;;5032635;28;20472;-61
2021/10/04 12:42:48;;;;;;;2.08;0.35;;;17.40;99.90;;;;;;5030730;28;20095;-63
2021/10/04 12:45:13;;;;;;;2.90;0.88;;;17.30;99.90;;;;;;5029318;28;20060;-63
2021/10/04 12:48:01;;;;;;;4.18;0.32;;;17.40;99.90;;;;;;5026970;28;20041;-62
2021/10/04 12:50:35;;;;;;;5.97;0.52;;;17.40;99.90;;;;;;5044488;28;20418;-61
2021/10/04 12:53:11;;;;;;;6.72;0.50;;;17.50;99.90;;;;;;5028053;28;20561;-61